< < Back
Terminal Aerodrome Forecast


Current Version              Previous Versions:   1  2  3  4  5  6  7  8  9  

Terminal Aerodrome Forecast

891
FTUS44 KBMX 211100
TAFANB
TAF
KANB 211138Z 2112/2212 07005KT P6SM SCT007 OVC012
      TEMPO 2112/2115 OVC008
     FM211900 08006KT P6SM OVC020
     FM220300 06006KT P6SM OVC012
     FM220900 06007KT 5SM BR OVC006=



Latest METAR

366
SAUS70 KWBC 211500 RRE
MTRANB
METAR KANB 211453Z AUTO 07006KT 7SM OVC013 09/06 A3019 RMK AO2 SLP229
T00940061 53002


USA.gov is the U.S. government's official web portal to all federal, state and local government web resources and services.